sensor_id;sensor_type;location;lat;lon;timestamp;P1;durP1;ratioP1;P2;durP2;ratioP2
74777;SDS011;63298;53.164;8.610;2023-04-03T00:00:02;4.72;;;1.27;;
74777;SDS011;63298;53.164;8.610;2023-04-03T00:02:29;5.93;;;1.00;;
74777;SDS011;63298;53.164;8.610;2023-04-03T00:04:55;2.50;;;0.93;;
74777;SDS011;63298;53.164;8.610;2023-04-03T00:07:20;1.88;;;1.08;;
74777;SDS011;63298;53.164;8.610;2023-04-03T00:09:45;2.28;;;0.98;;
74777;SDS011;63298;53.164;8.610;2023-04-03T00:12:11;2.83;;;1.17;;
74777;SDS011;63298;53.164;8.610;2023-04-03T00:14:36;3.47;;;1.25;;
74777;SDS011;63298;53.164;8.610;2023-04-03T00:17:01;3.83;;;1.23;;
74777;SDS011;63298;53.164;8.610;2023-04-03T00:19:27;10.32;;;1.70;;
74777;SDS011;63298;53.164;8.610;2023-04-03T00:21:52;3.40;;;1.20;;
74777;SDS011;63298;53.164;8.610;2023-04-03T00:24:17;2.50;;;1.02;;
74777;SDS011;63298;53.164;8.610;2023-04-03T00:26:43;2.33;;;1.10;;
74777;SDS011;63298;53.164;8.610;2023-04-03T00:29:08;4.05;;;1.15;;
74777;SDS011;63298;53.164;8.610;2023-04-03T00:31:34;3.47;;;1.20;;
74777;SDS011;63298;53.164;8.610;2023-04-03T00:33:59;4.05;;;1.10;;
74777;SDS011;63298;53.164;8.610;2023-04-03T00:36:24;5.90;;;1.20;;
74777;SDS011;63298;53.164;8.610;2023-04-03T00:38:50;2.78;;;1.10;;
74777;SDS011;63298;53.164;8.610;2023-04-03T00:41:16;5.15;;;1.33;;
74777;SDS011;63298;53.164;8.610;2023-04-03T00:43:41;1.40;;;1.00;;
74777;SDS011;63298;53.164;8.610;2023-04-03T00:46:06;3.22;;;1.38;;
74777;SDS011;63298;53.164;8.610;2023-04-03T00:51:10;2.40;;;0.75;;
74777;SDS011;63298;53.164;8.610;2023-04-03T00:53:40;4.25;;;1.38;;
74777;SDS011;63298;53.164;8.610;2023-04-03T00:56:10;3.70;;;1.33;;
74777;SDS011;63298;53.164;8.610;2023-04-03T00:58:40;5.57;;;1.38;;
74777;SDS011;63298;53.164;8.610;2023-04-03T01:01:10;3.65;;;1.35;;
74777;SDS011;63298;53.164;8.610;2023-04-03T01:03:40;3.92;;;0.98;;
74777;SDS011;63298;53.164;8.610;2023-04-03T01:06:06;7.70;;;1.58;;
74777;SDS011;63298;53.164;8.610;2023-04-03T01:08:34;4.00;;;1.63;;
74777;SDS011;63298;53.164;8.610;2023-04-03T01:11:00;4.78;;;1.23;;
74777;SDS011;63298;53.164;8.610;2023-04-03T01:13:28;2.92;;;1.23;;
74777;SDS011;63298;53.164;8.610;2023-04-03T01:18:27;6.03;;;1.58;;
74777;SDS011;63298;53.164;8.610;2023-04-03T01:29:03;4.57;;;1.50;;
74777;SDS011;63298;53.164;8.610;2023-04-03T01:34:00;5.57;;;1.30;;
74777;SDS011;63298;53.164;8.610;2023-04-03T01:36:28;3.67;;;1.23;;
74777;SDS011;63298;53.164;8.610;2023-04-03T01:38:55;6.18;;;1.13;;
74777;SDS011;63298;53.164;8.610;2023-04-03T01:41:22;3.00;;;1.20;;
74777;SDS011;63298;53.164;8.610;2023-04-03T01:43:48;3.55;;;1.35;;
74777;SDS011;63298;53.164;8.610;2023-04-03T01:46:15;6.18;;;1.27;;
74777;SDS011;63298;53.164;8.610;2023-04-03T01:48:41;6.93;;;1.40;;
74777;SDS011;63298;53.164;8.610;2023-04-03T01:51:07;11.57;;;1.77;;
74777;SDS011;63298;53.164;8.610;2023-04-03T01:53:32;2.95;;;1.20;;
74777;SDS011;63298;53.164;8.610;2023-04-03T01:55:58;5.07;;;0.80;;
74777;SDS011;63298;53.164;8.610;2023-04-03T01:58:23;5.80;;;1.17;;
74777;SDS011;63298;53.164;8.610;2023-04-03T02:00:48;5.00;;;1.20;;
74777;SDS011;63298;53.164;8.610;2023-04-03T02:03:14;6.53;;;1.00;;
74777;SDS011;63298;53.164;8.610;2023-04-03T02:05:39;5.18;;;1.13;;
74777;SDS011;63298;53.164;8.610;2023-04-03T02:08:05;2.70;;;1.20;;
74777;SDS011;63298;53.164;8.610;2023-04-03T02:10:30;3.22;;;1.40;;
74777;SDS011;63298;53.164;8.610;2023-04-03T02:12:56;8.35;;;1.20;;
74777;SDS011;63298;53.164;8.610;2023-04-03T02:15:22;7.32;;;1.70;;
74777;SDS011;63298;53.164;8.610;2023-04-03T02:17:47;6.57;;;1.15;;
74777;SDS011;63298;53.164;8.610;2023-04-03T02:20:13;2.90;;;1.00;;
74777;SDS011;63298;53.164;8.610;2023-04-03T02:22:38;6.32;;;1.45;;
74777;SDS011;63298;53.164;8.610;2023-04-03T02:25:04;3.47;;;1.55;;
74777;SDS011;63298;53.164;8.610;2023-04-03T02:27:29;4.07;;;1.40;;
74777;SDS011;63298;53.164;8.610;2023-04-03T02:29:58;9.90;;;1.60;;
74777;SDS011;63298;53.164;8.610;2023-04-03T02:32:26;6.05;;;1.80;;
74777;SDS011;63298;53.164;8.610;2023-04-03T02:34:53;7.55;;;1.98;;
74777;SDS011;63298;53.164;8.610;2023-04-03T02:37:18;6.38;;;1.33;;
74777;SDS011;63298;53.164;8.610;2023-04-03T02:39:44;3.28;;;1.20;;
74777;SDS011;63298;53.164;8.610;2023-04-03T02:42:09;2.95;;;1.30;;
74777;SDS011;63298;53.164;8.610;2023-04-03T02:47:13;5.07;;;1.45;;
74777;SDS011;63298;53.164;8.610;2023-04-03T02:52:21;7.80;;;1.30;;
74777;SDS011;63298;53.164;8.610;2023-04-03T02:54:51;3.47;;;1.48;;
74777;SDS011;63298;53.164;8.610;2023-04-03T02:57:26;5.35;;;1.20;;
74777;SDS011;63298;53.164;8.610;2023-04-03T02:59:52;7.55;;;1.35;;
74777;SDS011;63298;53.164;8.610;2023-04-03T03:02:21;4.22;;;1.20;;
74777;SDS011;63298;53.164;8.610;2023-04-03T03:04:49;6.93;;;1.40;;
74777;SDS011;63298;53.164;8.610;2023-04-03T03:07:15;3.25;;;1.30;;
74777;SDS011;63298;53.164;8.610;2023-04-03T03:09:41;3.70;;;1.23;;
74777;SDS011;63298;53.164;8.610;2023-04-03T03:12:07;3.28;;;1.85;;
74777;SDS011;63298;53.164;8.610;2023-04-03T03:14:36;3.55;;;1.13;;
74777;SDS011;63298;53.164;8.610;2023-04-03T03:17:03;3.33;;;1.20;;
74777;SDS011;63298;53.164;8.610;2023-04-03T03:19:31;4.38;;;1.50;;
74777;SDS011;63298;53.164;8.610;2023-04-03T03:22:01;7.20;;;1.77;;
74777;SDS011;63298;53.164;8.610;2023-04-03T03:24:27;3.40;;;1.50;;
74777;SDS011;63298;53.164;8.610;2023-04-03T03:26:53;5.53;;;1.45;;
74777;SDS011;63298;53.164;8.610;2023-04-03T03:29:19;3.47;;;1.60;;
74777;SDS011;63298;53.164;8.610;2023-04-03T03:31:45;6.03;;;1.70;;
74777;SDS011;63298;53.164;8.610;2023-04-03T03:34:12;6.00;;;1.83;;
74777;SDS011;63298;53.164;8.610;2023-04-03T03:36:40;6.70;;;1.48;;
74777;SDS011;63298;53.164;8.610;2023-04-03T03:39:06;3.65;;;1.23;;
74777;SDS011;63298;53.164;8.610;2023-04-03T03:41:32;1.67;;;1.23;;
74777;SDS011;63298;53.164;8.610;2023-04-03T03:44:01;4.35;;;1.10;;
74777;SDS011;63298;53.164;8.610;2023-04-03T03:46:27;3.20;;;1.20;;
74777;SDS011;63298;53.164;8.610;2023-04-03T03:48:53;2.90;;;1.50;;
74777;SDS011;63298;53.164;8.610;2023-04-03T03:51:21;2.88;;;1.20;;
74777;SDS011;63298;53.164;8.610;2023-04-03T03:53:47;5.78;;;1.30;;
74777;SDS011;63298;53.164;8.610;2023-04-03T03:56:12;4.13;;;1.88;;
74777;SDS011;63298;53.164;8.610;2023-04-03T03:58:38;3.38;;;1.20;;
74777;SDS011;63298;53.164;8.610;2023-04-03T04:01:04;5.05;;;1.40;;
74777;SDS011;63298;53.164;8.610;2023-04-03T04:03:31;7.28;;;2.45;;
74777;SDS011;63298;53.164;8.610;2023-04-03T04:05:56;2.20;;;1.30;;
74777;SDS011;63298;53.164;8.610;2023-04-03T04:08:22;6.65;;;1.70;;
74777;SDS011;63298;53.164;8.610;2023-04-03T04:10:48;3.00;;;1.40;;
74777;SDS011;63298;53.164;8.610;2023-04-03T04:13:13;6.88;;;1.30;;
74777;SDS011;63298;53.164;8.610;2023-04-03T04:15:39;6.22;;;1.50;;
74777;SDS011;63298;53.164;8.610;2023-04-03T04:18:04;5.20;;;1.55;;
74777;SDS011;63298;53.164;8.610;2023-04-03T04:20:30;4.18;;;1.58;;
74777;SDS011;63298;53.164;8.610;2023-04-03T04:22:55;2.50;;;1.30;;
74777;SDS011;63298;53.164;8.610;2023-04-03T04:25:21;2.78;;;1.30;;
74777;SDS011;63298;53.164;8.610;2023-04-03T04:27:46;6.45;;;1.48;;
74777;SDS011;63298;53.164;8.610;2023-04-03T04:30:11;6.32;;;1.77;;
74777;SDS011;63298;53.164;8.610;2023-04-03T04:32:37;3.22;;;1.17;;
74777;SDS011;63298;53.164;8.610;2023-04-03T04:35:03;4.07;;;1.35;;
74777;SDS011;63298;53.164;8.610;2023-04-03T04:37:29;3.15;;;1.45;;
74777;SDS011;63298;53.164;8.610;2023-04-03T04:39:55;2.42;;;1.30;;
74777;SDS011;63298;53.164;8.610;2023-04-03T04:42:21;4.88;;;1.65;;
74777;SDS011;63298;53.164;8.610;2023-04-03T04:44:52;3.63;;;1.70;;
74777;SDS011;63298;53.164;8.610;2023-04-03T04:47:19;2.53;;;1.30;;
74777;SDS011;63298;53.164;8.610;2023-04-03T04:49:44;6.78;;;2.38;;
74777;SDS011;63298;53.164;8.610;2023-04-03T04:52:14;4.80;;;2.22;;
74777;SDS011;63298;53.164;8.610;2023-04-03T04:54:39;7.35;;;1.90;;
74777;SDS011;63298;53.164;8.610;2023-04-03T04:57:05;4.85;;;1.45;;
74777;SDS011;63298;53.164;8.610;2023-04-03T04:59:30;3.88;;;1.70;;
74777;SDS011;63298;53.164;8.610;2023-04-03T05:01:55;6.32;;;1.70;;
74777;SDS011;63298;53.164;8.610;2023-04-03T05:04:21;3.88;;;1.35;;
74777;SDS011;63298;53.164;8.610;2023-04-03T05:06:46;6.78;;;1.98;;
74777;SDS011;63298;53.164;8.610;2023-04-03T05:09:12;3.67;;;1.50;;
74777;SDS011;63298;53.164;8.610;2023-04-03T05:11:37;5.05;;;1.48;;
74777;SDS011;63298;53.164;8.610;2023-04-03T05:14:03;3.85;;;1.50;;
74777;SDS011;63298;53.164;8.610;2023-04-03T05:16:28;5.18;;;1.35;;
74777;SDS011;63298;53.164;8.610;2023-04-03T05:18:53;2.80;;;1.20;;
74777;SDS011;63298;53.164;8.610;2023-04-03T05:21:19;4.03;;;1.63;;
74777;SDS011;63298;53.164;8.610;2023-04-03T05:23:45;3.13;;;1.60;;
74777;SDS011;63298;53.164;8.610;2023-04-03T05:26:10;4.78;;;1.48;;
74777;SDS011;63298;53.164;8.610;2023-04-03T05:28:35;3.70;;;1.90;;
74777;SDS011;63298;53.164;8.610;2023-04-03T05:31:01;3.90;;;1.98;;
74777;SDS011;63298;53.164;8.610;2023-04-03T05:33:27;6.05;;;2.10;;
74777;SDS011;63298;53.164;8.610;2023-04-03T05:35:53;4.53;;;1.85;;
74777;SDS011;63298;53.164;8.610;2023-04-03T05:38:19;8.27;;;2.03;;
74777;SDS011;63298;53.164;8.610;2023-04-03T05:40:44;6.97;;;1.95;;
74777;SDS011;63298;53.164;8.610;2023-04-03T05:43:09;8.05;;;2.15;;
74777;SDS011;63298;53.164;8.610;2023-04-03T05:45:35;4.15;;;1.88;;
74777;SDS011;63298;53.164;8.610;2023-04-03T05:48:00;4.32;;;1.98;;
74777;SDS011;63298;53.164;8.610;2023-04-03T05:50:25;11.88;;;2.97;;
74777;SDS011;63298;53.164;8.610;2023-04-03T05:52:51;5.05;;;1.80;;
74777;SDS011;63298;53.164;8.610;2023-04-03T05:55:23;3.50;;;1.60;;
74777;SDS011;63298;53.164;8.610;2023-04-03T05:57:48;6.13;;;2.00;;
74777;SDS011;63298;53.164;8.610;2023-04-03T06:00:15;6.57;;;1.90;;
74777;SDS011;63298;53.164;8.610;2023-04-03T06:02:41;6.80;;;1.70;;
74777;SDS011;63298;53.164;8.610;2023-04-03T06:05:07;5.43;;;2.10;;
74777;SDS011;63298;53.164;8.610;2023-04-03T06:07:33;7.22;;;2.60;;
74777;SDS011;63298;53.164;8.610;2023-04-03T06:09:59;5.07;;;1.67;;
74777;SDS011;63298;53.164;8.610;2023-04-03T06:12:25;3.50;;;1.83;;
74777;SDS011;63298;53.164;8.610;2023-04-03T06:14:50;5.38;;;1.95;;
74777;SDS011;63298;53.164;8.610;2023-04-03T06:17:16;2.08;;;1.40;;
74777;SDS011;63298;53.164;8.610;2023-04-03T06:19:41;8.15;;;1.80;;
74777;SDS011;63298;53.164;8.610;2023-04-03T06:22:07;8.45;;;1.70;;
74777;SDS011;63298;53.164;8.610;2023-04-03T06:24:32;9.85;;;2.08;;
74777;SDS011;63298;53.164;8.610;2023-04-03T06:26:58;4.07;;;1.60;;
74777;SDS011;63298;53.164;8.610;2023-04-03T06:29:24;1.92;;;1.70;;
74777;SDS011;63298;53.164;8.610;2023-04-03T06:31:50;9.68;;;1.90;;
74777;SDS011;63298;53.164;8.610;2023-04-03T06:34:16;7.20;;;2.08;;
74777;SDS011;63298;53.164;8.610;2023-04-03T06:36:42;4.68;;;1.95;;
74777;SDS011;63298;53.164;8.610;2023-04-03T06:39:08;5.93;;;1.45;;
74777;SDS011;63298;53.164;8.610;2023-04-03T06:41:38;1.30;;;1.20;;
74777;SDS011;63298;53.164;8.610;2023-04-03T06:44:03;8.40;;;1.60;;
74777;SDS011;63298;53.164;8.610;2023-04-03T06:46:29;2.15;;;1.10;;
74777;SDS011;63298;53.164;8.610;2023-04-03T06:48:54;5.60;;;1.60;;
74777;SDS011;63298;53.164;8.610;2023-04-03T06:53:47;4.72;;;1.73;;
74777;SDS011;63298;53.164;8.610;2023-04-03T06:56:13;1.65;;;1.10;;
74777;SDS011;63298;53.164;8.610;2023-04-03T06:58:39;2.40;;;1.23;;
74777;SDS011;63298;53.164;8.610;2023-04-03T07:01:04;5.80;;;1.38;;
74777;SDS011;63298;53.164;8.610;2023-04-03T07:03:30;6.88;;;1.42;;
74777;SDS011;63298;53.164;8.610;2023-04-03T07:05:55;5.47;;;1.25;;
74777;SDS011;63298;53.164;8.610;2023-04-03T07:08:20;4.97;;;1.17;;
74777;SDS011;63298;53.164;8.610;2023-04-03T07:10:46;5.20;;;1.52;;
74777;SDS011;63298;53.164;8.610;2023-04-03T07:13:11;3.65;;;1.17;;
74777;SDS011;63298;53.164;8.610;2023-04-03T07:15:36;4.78;;;1.13;;
74777;SDS011;63298;53.164;8.610;2023-04-03T07:18:02;1.88;;;1.10;;
74777;SDS011;63298;53.164;8.610;2023-04-03T07:20:27;4.50;;;1.10;;
74777;SDS011;63298;53.164;8.610;2023-04-03T07:22:53;2.65;;;0.90;;
74777;SDS011;63298;53.164;8.610;2023-04-03T07:25:18;2.05;;;1.23;;
74777;SDS011;63298;53.164;8.610;2023-04-03T07:27:44;5.28;;;1.33;;
74777;SDS011;63298;53.164;8.610;2023-04-03T07:30:09;3.47;;;1.20;;
74777;SDS011;63298;53.164;8.610;2023-04-03T07:32:35;2.42;;;1.17;;
74777;SDS011;63298;53.164;8.610;2023-04-03T07:35:00;9.93;;;1.02;;
74777;SDS011;63298;53.164;8.610;2023-04-03T07:37:26;1.90;;;0.90;;
74777;SDS011;63298;53.164;8.610;2023-04-03T07:39:51;1.38;;;0.90;;
74777;SDS011;63298;53.164;8.610;2023-04-03T07:42:16;1.98;;;0.93;;
74777;SDS011;63298;53.164;8.610;2023-04-03T07:44:42;1.88;;;0.90;;
74777;SDS011;63298;53.164;8.610;2023-04-03T07:47:07;1.15;;;0.80;;
74777;SDS011;63298;53.164;8.610;2023-04-03T07:49:33;3.60;;;1.10;;
74777;SDS011;63298;53.164;8.610;2023-04-03T07:51:58;3.40;;;0.98;;
74777;SDS011;63298;53.164;8.610;2023-04-03T07:54:23;3.30;;;0.90;;
74777;SDS011;63298;53.164;8.610;2023-04-03T07:56:49;1.15;;;0.90;;
74777;SDS011;63298;53.164;8.610;2023-04-03T07:59:14;1.38;;;0.90;;
74777;SDS011;63298;53.164;8.610;2023-04-03T08:01:39;5.45;;;1.23;;
74777;SDS011;63298;53.164;8.610;2023-04-03T08:04:05;3.50;;;1.13;;
74777;SDS011;63298;53.164;8.610;2023-04-03T08:06:30;5.88;;;1.20;;
74777;SDS011;63298;53.164;8.610;2023-04-03T08:08:56;3.35;;;0.80;;
74777;SDS011;63298;53.164;8.610;2023-04-03T08:11:21;3.65;;;1.00;;
74777;SDS011;63298;53.164;8.610;2023-04-03T08:13:47;4.85;;;1.30;;
74777;SDS011;63298;53.164;8.610;2023-04-03T08:16:14;2.30;;;0.90;;
74777;SDS011;63298;53.164;8.610;2023-04-03T08:18:43;2.03;;;0.90;;
74777;SDS011;63298;53.164;8.610;2023-04-03T08:21:09;1.92;;;1.38;;
74777;SDS011;63298;53.164;8.610;2023-04-03T08:23:36;4.18;;;1.13;;
74777;SDS011;63298;53.164;8.610;2023-04-03T08:26:06;1.00;;;1.00;;
74777;SDS011;63298;53.164;8.610;2023-04-03T08:28:37;2.28;;;1.00;;
74777;SDS011;63298;53.164;8.610;2023-04-03T08:31:04;0.93;;;0.68;;
74777;SDS011;63298;53.164;8.610;2023-04-03T08:33:31;3.40;;;1.10;;
74777;SDS011;63298;53.164;8.610;2023-04-03T08:35:57;10.00;;;1.48;;
74777;SDS011;63298;53.164;8.610;2023-04-03T08:38:22;3.20;;;0.80;;
74777;SDS011;63298;53.164;8.610;2023-04-03T08:40:58;5.18;;;1.05;;
74777;SDS011;63298;53.164;8.610;2023-04-03T08:49:03;1.73;;;0.63;;
74777;SDS011;63298;53.164;8.610;2023-04-03T08:54:02;1.88;;;0.47;;
74777;SDS011;63298;53.164;8.610;2023-04-03T08:56:31;2.17;;;0.95;;
74777;SDS011;63298;53.164;8.610;2023-04-03T08:59:00;1.70;;;0.68;;
74777;SDS011;63298;53.164;8.610;2023-04-03T09:01:33;1.60;;;0.65;;
74777;SDS011;63298;53.164;8.610;2023-04-03T09:04:01;1.27;;;0.60;;
74777;SDS011;63298;53.164;8.610;2023-04-03T09:06:31;2.50;;;0.90;;
74777;SDS011;63298;53.164;8.610;2023-04-03T09:09:11;2.53;;;0.70;;
74777;SDS011;63298;53.164;8.610;2023-04-03T09:11:50;3.22;;;1.50;;
74777;SDS011;63298;53.164;8.610;2023-04-03T09:14:53;1.30;;;0.55;;
74777;SDS011;63298;53.164;8.610;2023-04-03T09:23:15;1.90;;;0.65;;
74777;SDS011;63298;53.164;8.610;2023-04-03T09:25:41;0.65;;;0.45;;
74777;SDS011;63298;53.164;8.610;2023-04-03T09:28:08;0.68;;;0.50;;
74777;SDS011;63298;53.164;8.610;2023-04-03T09:30:33;1.52;;;0.60;;
74777;SDS011;63298;53.164;8.610;2023-04-03T09:32:59;2.50;;;0.70;;
74777;SDS011;63298;53.164;8.610;2023-04-03T09:35:31;0.90;;;0.50;;
74777;SDS011;63298;53.164;8.610;2023-04-03T09:38:14;2.45;;;0.80;;
74777;SDS011;63298;53.164;8.610;2023-04-03T09:41:02;0.80;;;0.68;;
74777;SDS011;63298;53.164;8.610;2023-04-03T09:43:32;2.40;;;0.93;;
74777;SDS011;63298;53.164;8.610;2023-04-03T09:48:55;2.92;;;0.47;;
74777;SDS011;63298;53.164;8.610;2023-04-03T09:51:27;0.98;;;0.50;;
74777;SDS011;63298;53.164;8.610;2023-04-03T09:53:53;4.47;;;0.60;;
74777;SDS011;63298;53.164;8.610;2023-04-03T09:56:21;1.58;;;0.60;;
74777;SDS011;63298;53.164;8.610;2023-04-03T09:58:50;2.30;;;0.55;;
74777;SDS011;63298;53.164;8.610;2023-04-03T10:01:29;4.25;;;0.75;;
74777;SDS011;63298;53.164;8.610;2023-04-03T10:04:14;1.70;;;0.40;;
74777;SDS011;63298;53.164;8.610;2023-04-03T10:06:44;2.25;;;0.70;;
74777;SDS011;63298;53.164;8.610;2023-04-03T10:12:09;0.93;;;0.50;;
74777;SDS011;63298;53.164;8.610;2023-04-03T10:14:37;1.77;;;0.73;;
74777;SDS011;63298;53.164;8.610;2023-04-03T10:20:08;2.58;;;0.70;;
74777;SDS011;63298;53.164;8.610;2023-04-03T10:28:16;6.68;;;0.75;;
74777;SDS011;63298;53.164;8.610;2023-04-03T10:30:58;1.25;;;0.60;;
74777;SDS011;63298;53.164;8.610;2023-04-03T10:41:48;3.17;;;1.02;;
74777;SDS011;63298;53.164;8.610;2023-04-03T10:44:20;6.35;;;0.73;;
74777;SDS011;63298;53.164;8.610;2023-04-03T10:52:39;4.38;;;0.98;;
74777;SDS011;63298;53.164;8.610;2023-04-03T10:56:08;1.35;;;0.60;;
74777;SDS011;63298;53.164;8.610;2023-04-03T10:58:36;1.58;;;0.68;;
74777;SDS011;63298;53.164;8.610;2023-04-03T11:01:06;1.13;;;0.57;;
74777;SDS011;63298;53.164;8.610;2023-04-03T11:03:57;0.63;;;0.63;;
74777;SDS011;63298;53.164;8.610;2023-04-03T11:06:25;1.70;;;0.80;;
74777;SDS011;63298;53.164;8.610;2023-04-03T11:09:41;1.58;;;0.98;;
74777;SDS011;63298;53.164;8.610;2023-04-03T11:11:53;1.05;;;0.70;;
74777;SDS011;63298;53.164;8.610;2023-04-03T11:17:15;0.60;;;0.40;;
74777;SDS011;63298;53.164;8.610;2023-04-03T11:19:57;1.60;;;0.80;;
74777;SDS011;63298;53.164;8.610;2023-04-03T11:22:29;6.28;;;0.77;;
74777;SDS011;63298;53.164;8.610;2023-04-03T11:27:45;0.73;;;0.50;;
74777;SDS011;63298;53.164;8.610;2023-04-03T11:30:37;2.33;;;0.90;;
74777;SDS011;63298;53.164;8.610;2023-04-03T11:36:09;3.28;;;0.70;;
74777;SDS011;63298;53.164;8.610;2023-04-03T11:38:43;1.67;;;1.20;;
74777;SDS011;63298;53.164;8.610;2023-04-03T11:41:11;2.47;;;0.60;;
74777;SDS011;63298;53.164;8.610;2023-04-03T11:46:56;1.63;;;0.68;;
74777;SDS011;63298;53.164;8.610;2023-04-03T12:05:50;0.68;;;0.57;;
74777;SDS011;63298;53.164;8.610;2023-04-03T12:13:37;2.58;;;0.75;;
74777;SDS011;63298;53.164;8.610;2023-04-03T12:16:03;1.98;;;0.80;;
74777;SDS011;63298;53.164;8.610;2023-04-03T12:21:09;0.75;;;0.50;;
74777;SDS011;63298;53.164;8.610;2023-04-03T12:23:36;1.95;;;0.63;;
74777;SDS011;63298;53.164;8.610;2023-04-03T12:26:40;2.28;;;0.82;;
74777;SDS011;63298;53.164;8.610;2023-04-03T12:29:56;3.17;;;0.52;;
74777;SDS011;63298;53.164;8.610;2023-04-03T12:31:58;1.23;;;0.75;;
74777;SDS011;63298;53.164;8.610;2023-04-03T12:45:44;1.05;;;0.80;;
74777;SDS011;63298;53.164;8.610;2023-04-03T12:49:12;0.82;;;0.43;;
74777;SDS011;63298;53.164;8.610;2023-04-03T12:54:14;2.00;;;0.65;;
74777;SDS011;63298;53.164;8.610;2023-04-03T12:56:44;1.15;;;0.80;;
74777;SDS011;63298;53.164;8.610;2023-04-03T12:59:22;3.00;;;1.17;;
74777;SDS011;63298;53.164;8.610;2023-04-03T13:01:58;1.83;;;1.13;;
74777;SDS011;63298;53.164;8.610;2023-04-03T13:04:25;2.67;;;0.80;;
74777;SDS011;63298;53.164;8.610;2023-04-03T13:06:52;2.17;;;0.70;;
74777;SDS011;63298;53.164;8.610;2023-04-03T13:09:19;1.20;;;0.75;;
74777;SDS011;63298;53.164;8.610;2023-04-03T13:11:47;0.57;;;0.50;;
74777;SDS011;63298;53.164;8.610;2023-04-03T13:14:16;1.33;;;0.90;;
74777;SDS011;63298;53.164;8.610;2023-04-03T13:16:52;1.50;;;0.85;;
74777;SDS011;63298;53.164;8.610;2023-04-03T13:19:18;1.70;;;0.63;;
74777;SDS011;63298;53.164;8.610;2023-04-03T13:21:44;3.33;;;0.80;;
74777;SDS011;63298;53.164;8.610;2023-04-03T13:24:10;5.68;;;1.58;;
74777;SDS011;63298;53.164;8.610;2023-04-03T13:26:36;2.45;;;0.65;;
74777;SDS011;63298;53.164;8.610;2023-04-03T13:29:07;2.25;;;0.80;;
74777;SDS011;63298;53.164;8.610;2023-04-03T13:31:43;1.45;;;0.70;;
74777;SDS011;63298;53.164;8.610;2023-04-03T13:36:36;0.60;;;0.60;;
74777;SDS011;63298;53.164;8.610;2023-04-03T13:41:38;1.27;;;0.68;;
74777;SDS011;63298;53.164;8.610;2023-04-03T13:46:46;1.77;;;1.10;;
74777;SDS011;63298;53.164;8.610;2023-04-03T13:51:43;2.13;;;0.70;;
74777;SDS011;63298;53.164;8.610;2023-04-03T13:54:20;0.75;;;0.60;;
74777;SDS011;63298;53.164;8.610;2023-04-03T13:56:54;1.05;;;0.95;;
74777;SDS011;63298;53.164;8.610;2023-04-03T13:59:32;1.45;;;0.80;;
74777;SDS011;63298;53.164;8.610;2023-04-03T14:04:45;4.43;;;0.90;;
74777;SDS011;63298;53.164;8.610;2023-04-03T14:07:21;1.67;;;0.68;;
74777;SDS011;63298;53.164;8.610;2023-04-03T14:09:48;5.00;;;1.00;;
74777;SDS011;63298;53.164;8.610;2023-04-03T14:12:15;2.80;;;0.80;;
74777;SDS011;63298;53.164;8.610;2023-04-03T14:14:52;0.85;;;0.75;;
74777;SDS011;63298;53.164;8.610;2023-04-03T14:17:19;1.10;;;1.00;;
74777;SDS011;63298;53.164;8.610;2023-04-03T14:19:49;1.92;;;0.77;;
74777;SDS011;63298;53.164;8.610;2023-04-03T14:22:17;2.35;;;0.73;;
74777;SDS011;63298;53.164;8.610;2023-04-03T14:24:44;2.33;;;0.80;;
74777;SDS011;63298;53.164;8.610;2023-04-03T14:27:13;0.70;;;0.70;;
74777;SDS011;63298;53.164;8.610;2023-04-03T14:29:42;1.20;;;0.80;;
74777;SDS011;63298;53.164;8.610;2023-04-03T14:32:10;1.42;;;0.88;;
74777;SDS011;63298;53.164;8.610;2023-04-03T14:34:40;1.25;;;0.52;;
74777;SDS011;63298;53.164;8.610;2023-04-03T14:37:13;1.65;;;0.80;;
74777;SDS011;63298;53.164;8.610;2023-04-03T14:39:43;2.65;;;1.00;;
74777;SDS011;63298;53.164;8.610;2023-04-03T14:42:11;1.73;;;0.95;;
74777;SDS011;63298;53.164;8.610;2023-04-03T14:44:42;1.55;;;0.80;;
74777;SDS011;63298;53.164;8.610;2023-04-03T14:47:11;2.72;;;0.80;;
74777;SDS011;63298;53.164;8.610;2023-04-03T14:49:39;2.67;;;0.90;;
74777;SDS011;63298;53.164;8.610;2023-04-03T14:52:05;2.13;;;0.70;;
74777;SDS011;63298;53.164;8.610;2023-04-03T14:54:30;2.20;;;0.80;;
74777;SDS011;63298;53.164;8.610;2023-04-03T14:56:57;1.10;;;0.80;;
74777;SDS011;63298;53.164;8.610;2023-04-03T14:59:31;0.80;;;0.80;;
74777;SDS011;63298;53.164;8.610;2023-04-03T15:01:56;2.40;;;1.00;;
74777;SDS011;63298;53.164;8.610;2023-04-03T15:04:22;2.17;;;0.93;;
74777;SDS011;63298;53.164;8.610;2023-04-03T15:06:47;1.38;;;0.80;;
74777;SDS011;63298;53.164;8.610;2023-04-03T15:09:23;1.77;;;0.90;;
74777;SDS011;63298;53.164;8.610;2023-04-03T15:11:51;2.05;;;0.80;;
74777;SDS011;63298;53.164;8.610;2023-04-03T15:14:18;1.80;;;0.80;;
74777;SDS011;63298;53.164;8.610;2023-04-03T15:16:43;4.03;;;2.25;;
74777;SDS011;63298;53.164;8.610;2023-04-03T15:19:09;3.05;;;1.40;;
74777;SDS011;63298;53.164;8.610;2023-04-03T15:21:35;2.35;;;0.70;;
74777;SDS011;63298;53.164;8.610;2023-04-03T15:24:01;1.88;;;0.70;;
74777;SDS011;63298;53.164;8.610;2023-04-03T15:26:26;4.35;;;0.95;;
74777;SDS011;63298;53.164;8.610;2023-04-03T15:28:52;1.67;;;0.60;;
74777;SDS011;63298;53.164;8.610;2023-04-03T15:31:18;0.90;;;0.70;;
74777;SDS011;63298;53.164;8.610;2023-04-03T15:33:44;1.98;;;0.50;;
74777;SDS011;63298;53.164;8.610;2023-04-03T15:36:09;1.65;;;0.90;;
74777;SDS011;63298;53.164;8.610;2023-04-03T15:38:34;2.30;;;0.90;;
74777;SDS011;63298;53.164;8.610;2023-04-03T15:41:00;1.95;;;1.00;;
74777;SDS011;63298;53.164;8.610;2023-04-03T15:43:26;0.75;;;0.65;;
74777;SDS011;63298;53.164;8.610;2023-04-03T15:45:52;2.35;;;1.10;;
74777;SDS011;63298;53.164;8.610;2023-04-03T15:48:21;3.10;;;0.85;;
74777;SDS011;63298;53.164;8.610;2023-04-03T15:50:46;3.03;;;0.95;;
74777;SDS011;63298;53.164;8.610;2023-04-03T15:53:11;2.60;;;0.65;;
74777;SDS011;63298;53.164;8.610;2023-04-03T15:55:37;3.25;;;0.98;;
74777;SDS011;63298;53.164;8.610;2023-04-03T15:58:04;3.33;;;0.90;;
74777;SDS011;63298;53.164;8.610;2023-04-03T16:00:30;1.88;;;0.77;;
74777;SDS011;63298;53.164;8.610;2023-04-03T16:03:00;2.63;;;1.08;;
74777;SDS011;63298;53.164;8.610;2023-04-03T16:05:31;4.30;;;1.10;;
74777;SDS011;63298;53.164;8.610;2023-04-03T16:07:58;1.85;;;0.80;;
74777;SDS011;63298;53.164;8.610;2023-04-03T16:10:25;3.58;;;1.10;;
74777;SDS011;63298;53.164;8.610;2023-04-03T16:12:51;0.95;;;0.70;;
74777;SDS011;63298;53.164;8.610;2023-04-03T16:15:16;1.08;;;0.90;;
74777;SDS011;63298;53.164;8.610;2023-04-03T16:17:42;1.17;;;0.73;;
74777;SDS011;63298;53.164;8.610;2023-04-03T16:20:08;2.80;;;0.93;;
74777;SDS011;63298;53.164;8.610;2023-04-03T16:22:35;0.70;;;0.70;;
74777;SDS011;63298;53.164;8.610;2023-04-03T16:25:02;1.55;;;0.90;;
74777;SDS011;63298;53.164;8.610;2023-04-03T16:27:29;3.10;;;1.00;;
74777;SDS011;63298;53.164;8.610;2023-04-03T16:29:55;0.90;;;0.70;;
74777;SDS011;63298;53.164;8.610;2023-04-03T16:32:22;1.77;;;0.82;;
74777;SDS011;63298;53.164;8.610;2023-04-03T16:34:51;3.67;;;1.00;;
74777;SDS011;63298;53.164;8.610;2023-04-03T16:37:17;5.00;;;1.13;;
74777;SDS011;63298;53.164;8.610;2023-04-03T16:39:43;2.38;;;0.90;;
74777;SDS011;63298;53.164;8.610;2023-04-03T16:42:08;2.30;;;0.93;;
74777;SDS011;63298;53.164;8.610;2023-04-03T16:44:37;1.85;;;0.73;;
74777;SDS011;63298;53.164;8.610;2023-04-03T16:47:03;2.90;;;0.93;;
74777;SDS011;63298;53.164;8.610;2023-04-03T16:49:28;2.03;;;0.88;;
74777;SDS011;63298;53.164;8.610;2023-04-03T16:51:54;3.40;;;1.08;;
74777;SDS011;63298;53.164;8.610;2023-04-03T16:54:20;1.38;;;0.77;;
74777;SDS011;63298;53.164;8.610;2023-04-03T16:56:46;2.20;;;0.98;;
74777;SDS011;63298;53.164;8.610;2023-04-03T16:59:11;3.20;;;0.93;;
74777;SDS011;63298;53.164;8.610;2023-04-03T17:01:37;1.42;;;1.10;;